sensor_id;sensor_type;location;lat;lon;timestamp;temperature;humidity
18450;DHT22;9354;50.194;7.690;2023-02-04T00:00:11;7.70;99.90
18450;DHT22;9354;50.194;7.690;2023-02-04T00:02:40;7.70;99.90
18450;DHT22;9354;50.194;7.690;2023-02-04T00:05:09;7.70;99.90
18450;DHT22;9354;50.194;7.690;2023-02-04T00:07:36;7.70;99.90
18450;DHT22;9354;50.194;7.690;2023-02-04T00:10:05;7.70;99.90
18450;DHT22;9354;50.194;7.690;2023-02-04T00:12:33;7.70;99.90
18450;DHT22;9354;50.194;7.690;2023-02-04T00:15:01;7.70;99.90
18450;DHT22;9354;50.194;7.690;2023-02-04T00:17:28;7.70;99.90
18450;DHT22;9354;50.194;7.690;2023-02-04T00:19:57;7.70;99.90
18450;DHT22;9354;50.194;7.690;2023-02-04T00:22:24;7.70;99.90
18450;DHT22;9354;50.194;7.690;2023-02-04T00:24:53;7.70;99.90
18450;DHT22;9354;50.194;7.690;2023-02-04T00:27:21;7.70;99.90
18450;DHT22;9354;50.194;7.690;2023-02-04T00:29:48;7.70;99.90
18450;DHT22;9354;50.194;7.690;2023-02-04T00:32:16;7.70;99.90
18450;DHT22;9354;50.194;7.690;2023-02-04T00:34:43;7.70;99.90
18450;DHT22;9354;50.194;7.690;2023-02-04T00:37:12;7.60;99.90
18450;DHT22;9354;50.194;7.690;2023-02-04T00:39:39;7.70;99.90
18450;DHT22;9354;50.194;7.690;2023-02-04T00:42:07;7.60;99.90
18450;DHT22;9354;50.194;7.690;2023-02-04T00:44:34;7.60;99.90
18450;DHT22;9354;50.194;7.690;2023-02-04T00:47:02;7.60;99.90
18450;DHT22;9354;50.194;7.690;2023-02-04T00:49:29;7.60;99.90
18450;DHT22;9354;50.194;7.690;2023-02-04T00:51:57;7.60;99.90
18450;DHT22;9354;50.194;7.690;2023-02-04T00:54:26;7.60;99.90
18450;DHT22;9354;50.194;7.690;2023-02-04T00:56:54;7.60;99.90
18450;DHT22;9354;50.194;7.690;2023-02-04T00:59:21;7.60;99.90
18450;DHT22;9354;50.194;7.690;2023-02-04T01:01:48;7.60;99.90
18450;DHT22;9354;50.194;7.690;2023-02-04T01:04:16;7.50;99.90
18450;DHT22;9354;50.194;7.690;2023-02-04T01:06:44;7.50;99.90
18450;DHT22;9354;50.194;7.690;2023-02-04T01:09:11;7.50;99.90
18450;DHT22;9354;50.194;7.690;2023-02-04T01:11:42;7.40;99.90
18450;DHT22;9354;50.194;7.690;2023-02-04T01:14:09;7.40;99.90
18450;DHT22;9354;50.194;7.690;2023-02-04T01:16:36;7.30;99.90
18450;DHT22;9354;50.194;7.690;2023-02-04T01:19:04;7.30;99.90
18450;DHT22;9354;50.194;7.690;2023-02-04T01:21:31;7.20;99.90
18450;DHT22;9354;50.194;7.690;2023-02-04T01:23:59;7.20;99.90
18450;DHT22;9354;50.194;7.690;2023-02-04T01:26:26;7.10;99.90
18450;DHT22;9354;50.194;7.690;2023-02-04T01:28:55;7.10;99.90
18450;DHT22;9354;50.194;7.690;2023-02-04T01:31:22;7.10;99.90
18450;DHT22;9354;50.194;7.690;2023-02-04T01:33:49;7.00;99.90
18450;DHT22;9354;50.194;7.690;2023-02-04T01:36:17;7.00;99.90
18450;DHT22;9354;50.194;7.690;2023-02-04T01:38:46;7.00;99.90
18450;DHT22;9354;50.194;7.690;2023-02-04T01:41:14;6.90;99.90
18450;DHT22;9354;50.194;7.690;2023-02-04T01:43:42;6.90;99.90
18450;DHT22;9354;50.194;7.690;2023-02-04T01:46:11;6.90;99.90
18450;DHT22;9354;50.194;7.690;2023-02-04T01:48:38;6.90;99.90
18450;DHT22;9354;50.194;7.690;2023-02-04T01:51:08;6.80;99.90
18450;DHT22;9354;50.194;7.690;2023-02-04T01:53:37;6.80;99.90
18450;DHT22;9354;50.194;7.690;2023-02-04T01:56:14;6.70;99.90
18450;DHT22;9354;50.194;7.690;2023-02-04T01:58:43;6.70;99.90
18450;DHT22;9354;50.194;7.690;2023-02-04T02:01:13;6.70;99.90
18450;DHT22;9354;50.194;7.690;2023-02-04T02:03:41;6.70;99.90
18450;DHT22;9354;50.194;7.690;2023-02-04T02:06:09;6.60;99.90
18450;DHT22;9354;50.194;7.690;2023-02-04T02:08:37;6.60;99.90
18450;DHT22;9354;50.194;7.690;2023-02-04T02:11:04;6.60;99.90
18450;DHT22;9354;50.194;7.690;2023-02-04T02:13:32;6.60;99.90
18450;DHT22;9354;50.194;7.690;2023-02-04T02:15:59;6.60;99.90
18450;DHT22;9354;50.194;7.690;2023-02-04T02:18:28;6.50;99.90
18450;DHT22;9354;50.194;7.690;2023-02-04T02:20:57;6.50;99.90
18450;DHT22;9354;50.194;7.690;2023-02-04T02:23:42;6.50;99.90
18450;DHT22;9354;50.194;7.690;2023-02-04T02:26:11;6.50;99.90
18450;DHT22;9354;50.194;7.690;2023-02-04T02:28:39;6.50;99.90
18450;DHT22;9354;50.194;7.690;2023-02-04T02:31:07;6.50;99.90
18450;DHT22;9354;50.194;7.690;2023-02-04T02:33:35;6.50;99.90
18450;DHT22;9354;50.194;7.690;2023-02-04T02:36:03;6.50;99.90
18450;DHT22;9354;50.194;7.690;2023-02-04T02:38:30;6.50;99.90
18450;DHT22;9354;50.194;7.690;2023-02-04T02:40:59;6.40;99.90
18450;DHT22;9354;50.194;7.690;2023-02-04T02:43:27;6.40;99.90
18450;DHT22;9354;50.194;7.690;2023-02-04T02:45:57;6.40;99.90
18450;DHT22;9354;50.194;7.690;2023-02-04T02:48:25;6.40;99.90
18450;DHT22;9354;50.194;7.690;2023-02-04T02:50:53;6.40;99.90
18450;DHT22;9354;50.194;7.690;2023-02-04T02:53:20;6.40;99.90
18450;DHT22;9354;50.194;7.690;2023-02-04T02:55:48;6.40;99.90
18450;DHT22;9354;50.194;7.690;2023-02-04T02:58:22;6.40;99.90
18450;DHT22;9354;50.194;7.690;2023-02-04T03:00:49;6.40;99.90
18450;DHT22;9354;50.194;7.690;2023-02-04T03:03:20;6.40;99.90
18450;DHT22;9354;50.194;7.690;2023-02-04T03:05:52;6.40;99.90
18450;DHT22;9354;50.194;7.690;2023-02-04T03:08:20;6.30;99.90
18450;DHT22;9354;50.194;7.690;2023-02-04T03:10:48;6.30;99.90
18450;DHT22;9354;50.194;7.690;2023-02-04T03:13:17;6.30;99.90
18450;DHT22;9354;50.194;7.690;2023-02-04T03:15:46;6.30;99.90
18450;DHT22;9354;50.194;7.690;2023-02-04T03:18:16;6.30;99.90
18450;DHT22;9354;50.194;7.690;2023-02-04T03:20:46;6.30;99.90
18450;DHT22;9354;50.194;7.690;2023-02-04T03:23:14;6.20;99.90
18450;DHT22;9354;50.194;7.690;2023-02-04T03:25:41;6.20;99.90
18450;DHT22;9354;50.194;7.690;2023-02-04T03:28:09;6.20;99.90
18450;DHT22;9354;50.194;7.690;2023-02-04T03:30:38;6.20;99.90
18450;DHT22;9354;50.194;7.690;2023-02-04T03:33:05;6.20;99.90
18450;DHT22;9354;50.194;7.690;2023-02-04T03:35:32;6.20;99.90
18450;DHT22;9354;50.194;7.690;2023-02-04T03:38:00;6.20;99.90
18450;DHT22;9354;50.194;7.690;2023-02-04T03:40:27;6.20;99.90
18450;DHT22;9354;50.194;7.690;2023-02-04T03:42:54;6.20;99.90
18450;DHT22;9354;50.194;7.690;2023-02-04T03:45:22;6.20;99.90
18450;DHT22;9354;50.194;7.690;2023-02-04T03:47:50;6.20;99.90
18450;DHT22;9354;50.194;7.690;2023-02-04T03:50:18;6.20;99.90
18450;DHT22;9354;50.194;7.690;2023-02-04T03:52:45;6.20;99.90
18450;DHT22;9354;50.194;7.690;2023-02-04T03:55:14;6.20;99.90
18450;DHT22;9354;50.194;7.690;2023-02-04T03:57:41;6.20;99.90
18450;DHT22;9354;50.194;7.690;2023-02-04T04:00:09;6.20;99.90
18450;DHT22;9354;50.194;7.690;2023-02-04T04:02:37;6.20;99.90
18450;DHT22;9354;50.194;7.690;2023-02-04T04:05:06;6.20;99.90
18450;DHT22;9354;50.194;7.690;2023-02-04T04:07:34;6.20;99.90
18450;DHT22;9354;50.194;7.690;2023-02-04T04:10:02;6.20;99.90
18450;DHT22;9354;50.194;7.690;2023-02-04T04:12:29;6.20;99.90
18450;DHT22;9354;50.194;7.690;2023-02-04T04:14:56;6.20;99.90
18450;DHT22;9354;50.194;7.690;2023-02-04T04:17:24;6.20;99.90
18450;DHT22;9354;50.194;7.690;2023-02-04T04:19:51;6.30;99.90
18450;DHT22;9354;50.194;7.690;2023-02-04T04:22:20;6.30;99.90
18450;DHT22;9354;50.194;7.690;2023-02-04T04:24:47;6.30;99.90
18450;DHT22;9354;50.194;7.690;2023-02-04T04:27:14;6.30;99.90
18450;DHT22;9354;50.194;7.690;2023-02-04T04:29:42;6.40;99.90
18450;DHT22;9354;50.194;7.690;2023-02-04T04:32:09;6.40;99.90
18450;DHT22;9354;50.194;7.690;2023-02-04T04:34:36;6.30;99.90
18450;DHT22;9354;50.194;7.690;2023-02-04T04:37:04;6.30;99.90
18450;DHT22;9354;50.194;7.690;2023-02-04T04:39:32;6.40;99.90
18450;DHT22;9354;50.194;7.690;2023-02-04T04:42:00;6.40;99.90
18450;DHT22;9354;50.194;7.690;2023-02-04T04:44:27;6.40;99.90
18450;DHT22;9354;50.194;7.690;2023-02-04T04:46:54;6.40;99.90
18450;DHT22;9354;50.194;7.690;2023-02-04T04:49:22;6.40;99.90
18450;DHT22;9354;50.194;7.690;2023-02-04T04:51:49;6.40;99.90
18450;DHT22;9354;50.194;7.690;2023-02-04T04:54:16;6.40;99.90
18450;DHT22;9354;50.194;7.690;2023-02-04T04:56:45;6.40;99.90
18450;DHT22;9354;50.194;7.690;2023-02-04T04:59:12;6.40;99.90
18450;DHT22;9354;50.194;7.690;2023-02-04T05:01:40;6.40;99.90
18450;DHT22;9354;50.194;7.690;2023-02-04T05:04:08;6.40;99.90
18450;DHT22;9354;50.194;7.690;2023-02-04T05:06:35;6.40;99.90
18450;DHT22;9354;50.194;7.690;2023-02-04T05:09:02;6.40;99.90
18450;DHT22;9354;50.194;7.690;2023-02-04T05:11:30;6.40;99.90
18450;DHT22;9354;50.194;7.690;2023-02-04T05:13:58;6.40;99.90
18450;DHT22;9354;50.194;7.690;2023-02-04T05:16:26;6.40;99.90
18450;DHT22;9354;50.194;7.690;2023-02-04T05:18:53;6.40;99.90
18450;DHT22;9354;50.194;7.690;2023-02-04T05:21:20;6.40;99.90
18450;DHT22;9354;50.194;7.690;2023-02-04T05:23:48;6.40;99.90
18450;DHT22;9354;50.194;7.690;2023-02-04T05:26:15;6.40;99.90
18450;DHT22;9354;50.194;7.690;2023-02-04T05:28:43;6.40;99.90
18450;DHT22;9354;50.194;7.690;2023-02-04T05:31:11;6.40;99.90
18450;DHT22;9354;50.194;7.690;2023-02-04T05:33:39;6.40;99.90
18450;DHT22;9354;50.194;7.690;2023-02-04T05:36:06;6.40;99.90
18450;DHT22;9354;50.194;7.690;2023-02-04T05:38:33;6.40;99.90
18450;DHT22;9354;50.194;7.690;2023-02-04T05:41:01;6.40;99.90
18450;DHT22;9354;50.194;7.690;2023-02-04T05:43:28;6.40;99.90
18450;DHT22;9354;50.194;7.690;2023-02-04T05:45:55;6.40;99.90
18450;DHT22;9354;50.194;7.690;2023-02-04T05:48:24;6.40;99.90
18450;DHT22;9354;50.194;7.690;2023-02-04T05:50:51;6.40;99.90
18450;DHT22;9354;50.194;7.690;2023-02-04T05:53:19;6.40;99.90
18450;DHT22;9354;50.194;7.690;2023-02-04T05:55:46;6.40;99.90
18450;DHT22;9354;50.194;7.690;2023-02-04T05:58:13;6.40;99.90
18450;DHT22;9354;50.194;7.690;2023-02-04T06:00:41;6.40;99.90
18450;DHT22;9354;50.194;7.690;2023-02-04T06:03:08;6.40;99.90
18450;DHT22;9354;50.194;7.690;2023-02-04T06:05:37;6.40;99.90
18450;DHT22;9354;50.194;7.690;2023-02-04T06:08:04;6.40;99.90
18450;DHT22;9354;50.194;7.690;2023-02-04T06:10:31;6.40;99.90
18450;DHT22;9354;50.194;7.690;2023-02-04T06:12:59;6.40;99.90
18450;DHT22;9354;50.194;7.690;2023-02-04T06:15:26;6.40;99.90
18450;DHT22;9354;50.194;7.690;2023-02-04T06:17:53;6.40;99.90
18450;DHT22;9354;50.194;7.690;2023-02-04T06:20:21;6.50;99.90
18450;DHT22;9354;50.194;7.690;2023-02-04T06:22:50;6.50;99.90
18450;DHT22;9354;50.194;7.690;2023-02-04T06:25:18;6.50;99.90
18450;DHT22;9354;50.194;7.690;2023-02-04T06:27:45;6.60;99.90
18450;DHT22;9354;50.194;7.690;2023-02-04T06:30:13;6.60;99.90
18450;DHT22;9354;50.194;7.690;2023-02-04T06:32:41;6.60;99.90
18450;DHT22;9354;50.194;7.690;2023-02-04T06:35:09;6.70;99.90
18450;DHT22;9354;50.194;7.690;2023-02-04T06:37:38;6.70;99.90
18450;DHT22;9354;50.194;7.690;2023-02-04T06:40:08;6.70;99.90
18450;DHT22;9354;50.194;7.690;2023-02-04T06:42:35;6.70;99.90
18450;DHT22;9354;50.194;7.690;2023-02-04T06:45:03;6.70;99.90
18450;DHT22;9354;50.194;7.690;2023-02-04T06:47:31;6.70;99.90
18450;DHT22;9354;50.194;7.690;2023-02-04T06:49:58;6.70;99.90
18450;DHT22;9354;50.194;7.690;2023-02-04T06:52:25;6.70;99.90
18450;DHT22;9354;50.194;7.690;2023-02-04T06:54:54;6.70;99.90
18450;DHT22;9354;50.194;7.690;2023-02-04T06:57:23;6.70;99.90
18450;DHT22;9354;50.194;7.690;2023-02-04T06:59:50;6.70;99.90
18450;DHT22;9354;50.194;7.690;2023-02-04T07:02:18;6.70;99.90
18450;DHT22;9354;50.194;7.690;2023-02-04T07:04:45;6.70;99.90
18450;DHT22;9354;50.194;7.690;2023-02-04T07:07:14;6.70;99.90
18450;DHT22;9354;50.194;7.690;2023-02-04T07:09:41;6.70;99.90
18450;DHT22;9354;50.194;7.690;2023-02-04T07:12:08;6.70;99.90
18450;DHT22;9354;50.194;7.690;2023-02-04T07:14:37;6.70;99.90
18450;DHT22;9354;50.194;7.690;2023-02-04T07:17:04;6.70;99.90
18450;DHT22;9354;50.194;7.690;2023-02-04T07:19:32;6.70;99.90
18450;DHT22;9354;50.194;7.690;2023-02-04T07:22:01;6.60;99.90
18450;DHT22;9354;50.194;7.690;2023-02-04T07:24:28;6.60;99.90
18450;DHT22;9354;50.194;7.690;2023-02-04T07:26:55;6.60;99.90
18450;DHT22;9354;50.194;7.690;2023-02-04T07:29:23;6.60;99.90
18450;DHT22;9354;50.194;7.690;2023-02-04T07:31:52;6.60;99.90
18450;DHT22;9354;50.194;7.690;2023-02-04T07:34:20;6.60;99.90
18450;DHT22;9354;50.194;7.690;2023-02-04T07:36:47;6.70;99.90
18450;DHT22;9354;50.194;7.690;2023-02-04T07:39:15;6.70;99.90
18450;DHT22;9354;50.194;7.690;2023-02-04T07:41:43;6.70;99.90
18450;DHT22;9354;50.194;7.690;2023-02-04T07:44:10;6.70;99.90
18450;DHT22;9354;50.194;7.690;2023-02-04T07:46:37;6.70;99.90
18450;DHT22;9354;50.194;7.690;2023-02-04T07:49:06;6.70;99.90
18450;DHT22;9354;50.194;7.690;2023-02-04T07:51:33;6.70;99.90
18450;DHT22;9354;50.194;7.690;2023-02-04T07:54:01;6.70;99.90
18450;DHT22;9354;50.194;7.690;2023-02-04T07:56:28;6.70;99.90
18450;DHT22;9354;50.194;7.690;2023-02-04T07:58:55;6.70;99.90
18450;DHT22;9354;50.194;7.690;2023-02-04T08:01:23;6.70;99.90
18450;DHT22;9354;50.194;7.690;2023-02-04T08:03:50;6.70;99.90
18450;DHT22;9354;50.194;7.690;2023-02-04T08:06:19;6.70;99.90
18450;DHT22;9354;50.194;7.690;2023-02-04T08:08:46;6.70;99.90
18450;DHT22;9354;50.194;7.690;2023-02-04T08:11:14;6.70;99.90
18450;DHT22;9354;50.194;7.690;2023-02-04T08:13:41;6.70;99.90
18450;DHT22;9354;50.194;7.690;2023-02-04T08:16:08;6.70;99.90
18450;DHT22;9354;50.194;7.690;2023-02-04T08:18:36;6.80;99.90
18450;DHT22;9354;50.194;7.690;2023-02-04T08:21:03;6.80;99.90
18450;DHT22;9354;50.194;7.690;2023-02-04T08:23:32;6.80;99.90
18450;DHT22;9354;50.194;7.690;2023-02-04T08:26:00;6.80;99.90
18450;DHT22;9354;50.194;7.690;2023-02-04T08:28:27;6.90;99.90
18450;DHT22;9354;50.194;7.690;2023-02-04T08:30:54;6.90;99.90
18450;DHT22;9354;50.194;7.690;2023-02-04T08:33:22;6.90;99.90
18450;DHT22;9354;50.194;7.690;2023-02-04T08:35:49;6.90;99.90
18450;DHT22;9354;50.194;7.690;2023-02-04T08:38:17;7.00;99.90
18450;DHT22;9354;50.194;7.690;2023-02-04T08:40:45;7.00;99.90
18450;DHT22;9354;50.194;7.690;2023-02-04T08:43:13;7.00;99.90
18450;DHT22;9354;50.194;7.690;2023-02-04T08:45:40;7.00;99.90
18450;DHT22;9354;50.194;7.690;2023-02-04T08:48:07;7.00;99.90
18450;DHT22;9354;50.194;7.690;2023-02-04T08:50:35;7.00;99.90
18450;DHT22;9354;50.194;7.690;2023-02-04T08:53:02;7.00;99.90
18450;DHT22;9354;50.194;7.690;2023-02-04T08:55:30;7.10;99.90
18450;DHT22;9354;50.194;7.690;2023-02-04T08:57:58;7.10;99.90
18450;DHT22;9354;50.194;7.690;2023-02-04T09:00:26;7.10;99.90
18450;DHT22;9354;50.194;7.690;2023-02-04T09:02:54;7.10;99.90
18450;DHT22;9354;50.194;7.690;2023-02-04T09:05:21;7.10;99.90
18450;DHT22;9354;50.194;7.690;2023-02-04T09:07:48;7.10;99.90
18450;DHT22;9354;50.194;7.690;2023-02-04T09:10:16;7.10;99.90
18450;DHT22;9354;50.194;7.690;2023-02-04T09:12:43;7.10;99.90
18450;DHT22;9354;50.194;7.690;2023-02-04T09:15:12;7.10;99.90
18450;DHT22;9354;50.194;7.690;2023-02-04T09:17:39;7.10;99.90
18450;DHT22;9354;50.194;7.690;2023-02-04T09:20:09;7.10;99.90
18450;DHT22;9354;50.194;7.690;2023-02-04T09:22:37;7.20;99.90
18450;DHT22;9354;50.194;7.690;2023-02-04T09:25:05;7.20;99.90
18450;DHT22;9354;50.194;7.690;2023-02-04T09:27:33;7.30;99.90
18450;DHT22;9354;50.194;7.690;2023-02-04T09:30:00;7.30;99.90
18450;DHT22;9354;50.194;7.690;2023-02-04T09:32:29;7.40;99.90
18450;DHT22;9354;50.194;7.690;2023-02-04T09:34:56;7.40;99.90
18450;DHT22;9354;50.194;7.690;2023-02-04T09:37:24;7.40;99.90
18450;DHT22;9354;50.194;7.690;2023-02-04T09:39:51;7.40;99.90
18450;DHT22;9354;50.194;7.690;2023-02-04T09:42:22;7.50;99.90
18450;DHT22;9354;50.194;7.690;2023-02-04T09:44:51;7.50;99.90
18450;DHT22;9354;50.194;7.690;2023-02-04T09:47:21;7.60;99.90
18450;DHT22;9354;50.194;7.690;2023-02-04T09:49:51;7.60;99.90
18450;DHT22;9354;50.194;7.690;2023-02-04T09:52:18;7.70;99.90
18450;DHT22;9354;50.194;7.690;2023-02-04T09:54:49;7.80;99.90
18450;DHT22;9354;50.194;7.690;2023-02-04T09:57:18;7.90;99.90
18450;DHT22;9354;50.194;7.690;2023-02-04T09:59:46;7.90;99.90
18450;DHT22;9354;50.194;7.690;2023-02-04T10:02:21;8.00;99.90
18450;DHT22;9354;50.194;7.690;2023-02-04T10:04:54;8.10;99.90
18450;DHT22;9354;50.194;7.690;2023-02-04T10:07:23;8.10;99.90
18450;DHT22;9354;50.194;7.690;2023-02-04T10:09:53;8.10;99.90
18450;DHT22;9354;50.194;7.690;2023-02-04T10:12:20;8.10;99.90
18450;DHT22;9354;50.194;7.690;2023-02-04T10:14:48;8.20;99.90
18450;DHT22;9354;50.194;7.690;2023-02-04T10:17:19;8.30;99.90
18450;DHT22;9354;50.194;7.690;2023-02-04T10:19:48;8.40;99.90
18450;DHT22;9354;50.194;7.690;2023-02-04T10:22:19;8.40;99.90
18450;DHT22;9354;50.194;7.690;2023-02-04T10:24:47;8.40;99.90
18450;DHT22;9354;50.194;7.690;2023-02-04T10:27:15;8.40;99.90
18450;DHT22;9354;50.194;7.690;2023-02-04T10:29:54;8.50;99.90
18450;DHT22;9354;50.194;7.690;2023-02-04T10:32:26;8.70;99.90
18450;DHT22;9354;50.194;7.690;2023-02-04T10:34:58;8.90;99.90
18450;DHT22;9354;50.194;7.690;2023-02-04T10:37:27;9.00;99.90
18450;DHT22;9354;50.194;7.690;2023-02-04T10:39:55;9.20;99.90
18450;DHT22;9354;50.194;7.690;2023-02-04T10:42:24;9.20;99.90
18450;DHT22;9354;50.194;7.690;2023-02-04T10:44:52;9.30;99.90
18450;DHT22;9354;50.194;7.690;2023-02-04T10:47:21;9.40;99.90
18450;DHT22;9354;50.194;7.690;2023-02-04T10:49:53;9.40;99.90
18450;DHT22;9354;50.194;7.690;2023-02-04T10:52:23;9.30;99.90
18450;DHT22;9354;50.194;7.690;2023-02-04T10:54:53;9.30;99.90
18450;DHT22;9354;50.194;7.690;2023-02-04T10:57:22;9.30;99.90
18450;DHT22;9354;50.194;7.690;2023-02-04T10:59:53;9.40;99.90
18450;DHT22;9354;50.194;7.690;2023-02-04T11:02:40;9.40;99.90
18450;DHT22;9354;50.194;7.690;2023-02-04T11:05:14;9.40;99.90
18450;DHT22;9354;50.194;7.690;2023-02-04T11:07:42;9.50;99.90
18450;DHT22;9354;50.194;7.690;2023-02-04T11:10:14;9.50;99.90
18450;DHT22;9354;50.194;7.690;2023-02-04T11:12:43;9.40;99.90
18450;DHT22;9354;50.194;7.690;2023-02-04T11:15:38;9.30;99.90
18450;DHT22;9354;50.194;7.690;2023-02-04T11:18:08;9.10;99.90
18450;DHT22;9354;50.194;7.690;2023-02-04T11:20:37;9.00;99.90
18450;DHT22;9354;50.194;7.690;2023-02-04T11:23:27;8.90;99.90
18450;DHT22;9354;50.194;7.690;2023-02-04T11:26:09;8.80;99.90
18450;DHT22;9354;50.194;7.690;2023-02-04T11:28:47;8.70;99.90
18450;DHT22;9354;50.194;7.690;2023-02-04T11:31:27;8.70;99.90
18450;DHT22;9354;50.194;7.690;2023-02-04T11:34:10;8.70;99.90
18450;DHT22;9354;50.194;7.690;2023-02-04T11:36:56;8.70;99.90
18450;DHT22;9354;50.194;7.690;2023-02-04T11:39:31;8.80;99.90
18450;DHT22;9354;50.194;7.690;2023-02-04T11:42:01;9.10;99.90
18450;DHT22;9354;50.194;7.690;2023-02-04T11:44:29;9.40;99.90
18450;DHT22;9354;50.194;7.690;2023-02-04T11:47:06;9.70;99.90
18450;DHT22;9354;50.194;7.690;2023-02-04T11:49:35;10.00;99.90
18450;DHT22;9354;50.194;7.690;2023-02-04T11:52:04;10.20;99.90
18450;DHT22;9354;50.194;7.690;2023-02-04T11:54:34;10.50;99.90
18450;DHT22;9354;50.194;7.690;2023-02-04T11:57:03;10.80;99.90
18450;DHT22;9354;50.194;7.690;2023-02-04T11:59:31;11.10;99.90
18450;DHT22;9354;50.194;7.690;2023-02-04T12:02:12;11.10;99.90
18450;DHT22;9354;50.194;7.690;2023-02-04T12:04:50;11.10;99.90
18450;DHT22;9354;50.194;7.690;2023-02-04T12:07:23;11.00;99.90
18450;DHT22;9354;50.194;7.690;2023-02-04T12:09:51;10.90;99.90
18450;DHT22;9354;50.194;7.690;2023-02-04T12:12:27;10.80;99.90
18450;DHT22;9354;50.194;7.690;2023-02-04T12:15:01;10.70;99.90
18450;DHT22;9354;50.194;7.690;2023-02-04T12:17:29;10.60;99.90
18450;DHT22;9354;50.194;7.690;2023-02-04T12:19:56;10.40;99.90
18450;DHT22;9354;50.194;7.690;2023-02-04T12:22:24;10.30;99.90
18450;DHT22;9354;50.194;7.690;2023-02-04T12:24:51;10.20;99.90
18450;DHT22;9354;50.194;7.690;2023-02-04T12:27:18;10.10;99.90
18450;DHT22;9354;50.194;7.690;2023-02-04T12:29:47;10.10;99.90
18450;DHT22;9354;50.194;7.690;2023-02-04T12:32:14;10.00;99.90
18450;DHT22;9354;50.194;7.690;2023-02-04T12:34:42;10.00;99.90
18450;DHT22;9354;50.194;7.690;2023-02-04T12:37:09;10.10;99.90
18450;DHT22;9354;50.194;7.690;2023-02-04T12:39:36;10.40;99.90
18450;DHT22;9354;50.194;7.690;2023-02-04T12:42:04;10.70;99.90
18450;DHT22;9354;50.194;7.690;2023-02-04T12:44:31;11.10;99.90
18450;DHT22;9354;50.194;7.690;2023-02-04T12:47:01;11.30;99.90
18450;DHT22;9354;50.194;7.690;2023-02-04T12:49:29;11.60;99.90
18450;DHT22;9354;50.194;7.690;2023-02-04T12:51:56;11.70;99.90
18450;DHT22;9354;50.194;7.690;2023-02-04T12:54:27;11.70;99.90
18450;DHT22;9354;50.194;7.690;2023-02-04T12:56:54;11.60;99.90
18450;DHT22;9354;50.194;7.690;2023-02-04T12:59:23;11.50;99.90
18450;DHT22;9354;50.194;7.690;2023-02-04T13:01:50;11.40;99.90
18450;DHT22;9354;50.194;7.690;2023-02-04T13:04:19;11.40;99.90
18450;DHT22;9354;50.194;7.690;2023-02-04T13:06:47;11.30;99.90
18450;DHT22;9354;50.194;7.690;2023-02-04T13:09:14;11.10;99.90
18450;DHT22;9354;50.194;7.690;2023-02-04T13:11:44;11.00;99.90
18450;DHT22;9354;50.194;7.690;2023-02-04T13:14:12;10.80;99.90
18450;DHT22;9354;50.194;7.690;2023-02-04T13:16:39;10.70;99.90
18450;DHT22;9354;50.194;7.690;2023-02-04T13:19:06;10.50;99.90
18450;DHT22;9354;50.194;7.690;2023-02-04T13:21:35;10.30;99.90
18450;DHT22;9354;50.194;7.690;2023-02-04T13:24:03;10.20;99.90
18450;DHT22;9354;50.194;7.690;2023-02-04T13:26:30;10.20;99.90
18450;DHT22;9354;50.194;7.690;2023-02-04T13:28:57;10.30;99.90
18450;DHT22;9354;50.194;7.690;2023-02-04T13:31:25;10.50;99.90
18450;DHT22;9354;50.194;7.690;2023-02-04T13:33:52;10.70;99.90
18450;DHT22;9354;50.194;7.690;2023-02-04T13:36:20;10.90;99.90
18450;DHT22;9354;50.194;7.690;2023-02-04T13:38:48;11.20;99.90
18450;DHT22;9354;50.194;7.690;2023-02-04T13:41:16;11.40;99.90
18450;DHT22;9354;50.194;7.690;2023-02-04T13:43:43;11.60;99.90
18450;DHT22;9354;50.194;7.690;2023-02-04T13:46:10;11.80;99.90
18450;DHT22;9354;50.194;7.690;2023-02-04T13:48:38;12.00;99.90
18450;DHT22;9354;50.194;7.690;2023-02-04T13:51:05;12.20;99.90
18450;DHT22;9354;50.194;7.690;2023-02-04T13:53:32;12.30;99.90
18450;DHT22;9354;50.194;7.690;2023-02-04T13:56:01;12.40;99.90
18450;DHT22;9354;50.194;7.690;2023-02-04T13:58:28;12.50;99.90
18450;DHT22;9354;50.194;7.690;2023-02-04T14:00:56;12.50;99.90
18450;DHT22;9354;50.194;7.690;2023-02-04T14:03:23;12.50;99.90
18450;DHT22;9354;50.194;7.690;2023-02-04T14:05:51;12.40;99.90
18450;DHT22;9354;50.194;7.690;2023-02-04T14:08:19;12.30;99.90
18450;DHT22;9354;50.194;7.690;2023-02-04T14:10:47;12.20;99.90
18450;DHT22;9354;50.194;7.690;2023-02-04T14:13:15;12.20;99.90
18450;DHT22;9354;50.194;7.690;2023-02-04T14:15:44;12.10;99.90
18450;DHT22;9354;50.194;7.690;2023-02-04T14:18:11;12.10;99.90
18450;DHT22;9354;50.194;7.690;2023-02-04T14:20:41;12.10;99.90
18450;DHT22;9354;50.194;7.690;2023-02-04T14:23:09;12.10;99.90
18450;DHT22;9354;50.194;7.690;2023-02-04T14:25:37;12.00;99.90
18450;DHT22;9354;50.194;7.690;2023-02-04T14:28:05;11.90;99.90
18450;DHT22;9354;50.194;7.690;2023-02-04T14:30:33;11.60;99.90
18450;DHT22;9354;50.194;7.690;2023-02-04T14:33:01;11.40;99.90
18450;DHT22;9354;50.194;7.690;2023-02-04T14:35:28;11.20;99.90
18450;DHT22;9354;50.194;7.690;2023-02-04T14:37:55;11.00;99.90
18450;DHT22;9354;50.194;7.690;2023-02-04T14:40:23;10.80;99.90
18450;DHT22;9354;50.194;7.690;2023-02-04T14:42:51;10.60;99.90
18450;DHT22;9354;50.194;7.690;2023-02-04T14:45:18;10.50;99.90
18450;DHT22;9354;50.194;7.690;2023-02-04T14:47:47;10.30;99.90
18450;DHT22;9354;50.194;7.690;2023-02-04T14:50:16;10.20;99.90
18450;DHT22;9354;50.194;7.690;2023-02-04T14:52:44;10.20;99.90
18450;DHT22;9354;50.194;7.690;2023-02-04T14:55:11;10.10;99.90
18450;DHT22;9354;50.194;7.690;2023-02-04T14:57:39;10.00;99.90
18450;DHT22;9354;50.194;7.690;2023-02-04T15:00:07;9.90;99.90
18450;DHT22;9354;50.194;7.690;2023-02-04T15:02:35;9.80;99.90
18450;DHT22;9354;50.194;7.690;2023-02-04T15:05:04;9.70;99.90
18450;DHT22;9354;50.194;7.690;2023-02-04T15:07:31;9.70;99.90
18450;DHT22;9354;50.194;7.690;2023-02-04T15:09:59;9.60;99.90
18450;DHT22;9354;50.194;7.690;2023-02-04T15:12:26;9.50;99.90
18450;DHT22;9354;50.194;7.690;2023-02-04T15:14:53;9.40;99.90
18450;DHT22;9354;50.194;7.690;2023-02-04T15:17:21;9.40;99.90
18450;DHT22;9354;50.194;7.690;2023-02-04T15:19:48;9.30;99.90
18450;DHT22;9354;50.194;7.690;2023-02-04T15:22:17;9.30;99.90
18450;DHT22;9354;50.194;7.690;2023-02-04T15:24:44;9.20;99.90
18450;DHT22;9354;50.194;7.690;2023-02-04T15:27:12;9.20;99.90
18450;DHT22;9354;50.194;7.690;2023-02-04T15:29:39;9.10;99.90
18450;DHT22;9354;50.194;7.690;2023-02-04T15:32:06;9.00;99.90
18450;DHT22;9354;50.194;7.690;2023-02-04T15:34:34;9.00;99.90
18450;DHT22;9354;50.194;7.690;2023-02-04T15:37:02;9.00;99.90
18450;DHT22;9354;50.194;7.690;2023-02-04T15:39:31;9.00;99.90
18450;DHT22;9354;50.194;7.690;2023-02-04T15:41:58;9.00;99.90
18450;DHT22;9354;50.194;7.690;2023-02-04T15:44:26;8.90;99.90
18450;DHT22;9354;50.194;7.690;2023-02-04T15:46:53;8.90;99.90
18450;DHT22;9354;50.194;7.690;2023-02-04T15:49:20;8.90;99.90
18450;DHT22;9354;50.194;7.690;2023-02-04T15:51:48;8.90;99.90
18450;DHT22;9354;50.194;7.690;2023-02-04T15:54:15;8.90;99.90
18450;DHT22;9354;50.194;7.690;2023-02-04T15:56:44;8.90;99.90
18450;DHT22;9354;50.194;7.690;2023-02-04T15:59:11;8.80;99.90
18450;DHT22;9354;50.194;7.690;2023-02-04T16:01:40;8.80;99.90
18450;DHT22;9354;50.194;7.690;2023-02-04T16:04:08;8.70;99.90
18450;DHT22;9354;50.194;7.690;2023-02-04T16:06:35;8.70;99.90